Nordhorn, Germany

7:36 AM CET on February 12, 2016 (GMT +0100)
INIEDERS31 | | Change Station
CLOSE
Current Station
Personal Weather Station
Location: Nordhorn, Niedersacksen
Elevation: 82 ft
Nearby Weather Stations

Elev 82 ft 52.42 °N, 7.06 °E | Updated 50 seconds ago

Mostly Cloudy
Mostly Cloudy
34.9 °F
Feels Like 35 °F
N
1.2
Wind Variable Wind from South
Gusts 1.2 mph

Today
High -- | Low -- °F
--% Chance of Precip.
Yesterday
High -- | Low -- °F
Precip. -- in
Pressure 29.59 in
Visibility 2.5 miles
Clouds Mostly Cloudy 5000 ft
Windchill 35 °F
Dew Point 34 °F
Humidity 96%
Rainfall 0.00 in
Snow Depth Not available.
7:54 AM 5:37 PM
Waxing Crescent, 18% visible
METAR ETHE 120620Z 19002KT 4000 BR BKN050 01/01 Q1002 GRN
Pressure 29.59 in
Visibility 2.5 miles
Clouds Mostly Cloudy 5000 ft
Windchill 35 °F
Dew Point 34 °F
Humidity 96%
Rainfall 0.00 in
Snow Depth Not available.
7:54 AM 5:37 PM
Waxing Crescent, 18% visible
METAR ETHE 120620Z 19002KT 4000 BR BKN050 01/01 Q1002 GRN

10-Day Weather Forecast

Almanac

Astronomy

Feb. 12, 2016 Rise Set
Actual Time
Civil Twilight
Nautical Twilight
Astronomical Twilight
Moon
Length of Visible Light
Length of Day
Tomorrow will be .
, % of the Moon is Illuminated

Today's Extremes

Country Highs Country Lows

Community

WunderPhotos

Upload Photos

1,892,276 photos uploaded!

WunderBlog® & News

Nearby

Air Quality

  Air Quality AQ Index Pollutant
Not available.

Snow Depth

Station Depth Elevation

Earthquake Activity

City Distance Mag. Time & Date
Minimum magnitude displayed is 2.5.

Coastal Water Temperatures

Place Temperature

Stations

Nearby Weather Stations

Station Location Temp. Windchill Dew Point Humidity Wind Precip. Elev Updated Type